Time;durP1;ratioP1;P1;durP2;ratioP2;P2;SDS_P1;SDS_P2;PMS_P1;PMS_P2;Temp;Humidity;BMP_temperature;BMP_pressure;BME280_temperature;BME280_humidity;BME280_pressure;Samples;Min_cycle;Max_cycle;Signal;HPM_P1;HPM_P2
2023/03/07 00:01:05;;;;;;;;;;;;;;;2.40;70.63;97181.25;7382724;19;19950;-72
2023/03/07 00:03:32;;;;;;;;;;;;;;;2.38;70.53;97169.28;7380025;19;19919;-72
2023/03/07 00:05:59;;;;;;;;;;;;;;;2.36;70.63;97173.81;7380808;19;19926;-71
2023/03/07 00:08:26;;;;;;;;;;;;;;;2.40;70.56;97176.03;7379981;19;19929;-72
2023/03/07 00:10:52;;;;;;;;;;;;;;;2.37;70.64;97178.91;7384210;19;20377;-72
2023/03/07 00:13:19;;;;;;;;;;;;;;;2.36;70.72;97173.81;7382180;19;19943;-72
2023/03/07 00:15:45;;;;;;;;;;;;;;;2.41;70.52;97176.84;7380718;19;19927;-72
2023/03/07 00:18:12;;;;;;;;;;;;;;;2.39;70.95;97176.16;7376215;19;20636;-72
2023/03/07 00:20:38;;;;;;;;;;;;;;;2.47;71.13;97178.09;7382872;19;19915;-72
2023/03/07 00:23:05;;;;;;;;;;;;;;;2.54;71.23;97174.00;7380797;19;20323;-72
2023/03/07 00:25:31;;;;;;;;;;;;;;;2.57;70.88;97165.88;7375306;19;20379;-72
2023/03/07 00:27:58;;;;;;;;;;;;;;;2.58;70.82;97170.13;7384005;19;20634;-72
2023/03/07 00:30:25;;;;;;;;;;;;;;;2.57;70.67;97171.13;7377732;19;20276;-72
2023/03/07 00:32:51;;;;;;;;;;;;;;;2.57;70.49;97174.53;7384461;19;19923;-72
2023/03/07 00:35:18;;;;;;;;;;;;;;;2.59;70.89;97162.19;7374660;19;20582;-72
2023/03/07 00:37:45;;;;;;;;;;;;;;;2.57;70.78;97163.28;7378687;19;19939;-72
2023/03/07 00:40:11;;;;;;;;;;;;;;;2.61;71.35;97160.28;7375307;19;19922;-72
2023/03/07 00:42:38;;;;;;;;;;;;;;;2.62;71.48;97156.69;7382472;19;19914;-72
2023/03/07 00:45:05;;;;;;;;;;;;;;;2.63;70.70;97160.13;7379799;19;19946;-72
2023/03/07 00:47:31;;;;;;;;;;;;;;;2.63;70.68;97153.13;7373631;19;19926;-72
2023/03/07 00:49:58;;;;;;;;;;;;;;;2.62;71.01;97145.44;7380162;19;20347;-71
2023/03/07 00:52:25;;;;;;;;;;;;;;;2.67;70.86;97132.78;7373096;19;19942;-72
2023/03/07 00:54:52;;;;;;;;;;;;;;;2.72;70.81;97135.00;7372599;19;19919;-71
2023/03/07 00:57:18;;;;;;;;;;;;;;;2.74;70.99;97127.81;7370385;19;19986;-72
2023/03/07 00:59:45;;;;;;;;;;;;;;;2.76;70.54;97126.72;7376600;19;19927;-71
2023/03/07 01:02:12;;;;;;;;;;;;;;;2.82;70.50;97128.81;7373590;19;20275;-72
2023/03/07 01:04:38;;;;;;;;;;;;;;;2.82;70.31;97130.59;7376150;19;19948;-72
2023/03/07 01:07:05;;;;;;;;;;;;;;;2.77;70.30;97123.16;7379697;19;19922;-71
2023/03/07 01:09:31;;;;;;;;;;;;;;;2.76;70.15;97126.72;7370396;19;19926;-71
2023/03/07 01:11:58;;;;;;;;;;;;;;;2.80;70.63;97127.28;7375051;19;19918;-71
2023/03/07 01:14:24;;;;;;;;;;;;;;;2.83;70.53;97124.41;7373654;19;19918;-72
2023/03/07 01:16:51;;;;;;;;;;;;;;;2.82;69.80;97125.38;7376345;19;19919;-71
2023/03/07 01:19:18;;;;;;;;;;;;;;;2.68;69.09;97131.00;7368322;19;20375;-71
2023/03/07 01:21:45;;;;;;;;;;;;;;;2.63;69.34;97131.41;7373090;19;19961;-71
2023/03/07 01:24:13;;;;;;;;;;;;;;;2.68;69.46;97125.78;7373828;19;19929;-72
2023/03/07 01:26:39;;;;;;;;;;;;;;;2.59;69.32;97123.03;7373768;19;19923;-72
2023/03/07 01:29:07;;;;;;;;;;;;;;;2.55;69.18;97124.25;7376151;19;19923;-72
2023/03/07 01:31:34;;;;;;;;;;;;;;;2.64;68.96;97117.41;7376504;19;19918;-71
2023/03/07 01:34:02;;;;;;;;;;;;;;;2.64;69.04;97120.00;7376013;19;19947;-72
2023/03/07 01:36:32;;;;;;;;;;;;;;;2.53;68.43;97123.56;7370462;19;20961;-71
2023/03/07 01:39:13;;;;;;;;;;;;;;;2.49;68.49;97119.56;7372272;19;19923;-71
2023/03/07 01:41:44;;;;;;;;;;;;;;;2.44;68.62;97111.31;7378728;19;19947;-71
2023/03/07 01:44:15;;;;;;;;;;;;;;;2.60;68.15;97116.00;7373199;19;19925;-71
2023/03/07 01:46:48;;;;;;;;;;;;;;;2.67;68.53;97111.06;7377598;19;19936;-71
2023/03/07 01:49:26;;;;;;;;;;;;;;;2.59;67.91;97109.16;7374845;19;20677;-71
2023/03/07 01:52:10;;;;;;;;;;;;;;;2.70;68.49;97113.41;7376394;19;19925;-72
2023/03/07 01:54:41;;;;;;;;;;;;;;;2.62;68.31;97109.69;7376017;19;20339;-72
2023/03/07 01:57:08;;;;;;;;;;;;;;;2.67;68.38;97105.84;7376975;19;19921;-72
2023/03/07 01:59:35;;;;;;;;;;;;;;;2.53;67.74;97104.47;7373375;19;19927;-72
2023/03/07 02:02:05;;;;;;;;;;;;;;;2.56;68.27;97096.38;7375986;19;19911;-71
2023/03/07 02:04:54;;;;;;;;;;;;;;;2.59;68.29;97096.91;7370843;19;20263;-71
2023/03/07 02:07:22;;;;;;;;;;;;;;;2.60;68.41;97093.31;7369228;19;20263;-71
2023/03/07 02:09:49;;;;;;;;;;;;;;;2.55;67.92;97092.09;7374924;19;19922;-72
2023/03/07 02:12:16;;;;;;;;;;;;;;;2.52;67.56;97084.53;7369516;19;19923;-71
2023/03/07 02:14:42;;;;;;;;;;;;;;;2.49;68.38;97087.44;7371075;19;19929;-72
2023/03/07 02:17:09;;;;;;;;;;;;;;;2.47;67.90;97078.91;7376268;19;19923;-72
2023/03/07 02:19:55;;;;;;;;;;;;;;;2.48;68.12;97083.19;7373339;19;20463;-72
2023/03/07 02:22:21;;;;;;;;;;;;;;;2.44;67.56;97084.41;7372900;19;19930;-71
2023/03/07 02:24:58;;;;;;;;;;;;;;;2.42;68.23;97076.69;7374124;19;19943;-71
2023/03/07 02:27:24;;;;;;;;;;;;;;;2.46;67.65;97083.31;7370532;19;20264;-71
2023/03/07 02:29:51;;;;;;;;;;;;;;;2.38;67.13;97078.75;7371064;19;20660;-71
2023/03/07 02:32:18;;;;;;;;;;;;;;;2.48;67.11;97080.56;7369127;19;19918;-71
2023/03/07 02:34:45;;;;;;;;;;;;;;;2.48;67.09;97077.97;7374152;19;19923;-71
2023/03/07 02:37:18;;;;;;;;;;;;;;;2.50;66.84;97079.47;7370683;19;20277;-71
2023/03/07 02:39:46;;;;;;;;;;;;;;;2.50;66.92;97079.47;7376055;19;19918;-71
2023/03/07 02:42:15;;;;;;;;;;;;;;;2.60;66.81;97072.44;7374726;19;19955;-71
2023/03/07 02:44:56;;;;;;;;;;;;;;;2.58;66.23;97063.94;7374656;19;19988;-72
2023/03/07 02:47:25;;;;;;;;;;;;;;;2.67;66.83;97061.47;7371358;19;20488;-71
2023/03/07 02:49:52;;;;;;;;;;;;;;;2.61;66.53;97061.06;7373939;19;19929;-71
2023/03/07 02:52:20;;;;;;;;;;;;;;;2.59;66.30;97057.75;7367012;19;20601;-71
2023/03/07 02:54:47;;;;;;;;;;;;;;;2.60;67.13;97058.56;7370644;19;19915;-71
2023/03/07 02:57:14;;;;;;;;;;;;;;;2.66;66.97;97052.81;7374916;19;19950;-71
2023/03/07 02:59:40;;;;;;;;;;;;;;;2.61;67.16;97048.00;7372764;19;19990;-71
2023/03/07 03:02:07;;;;;;;;;;;;;;;2.69;66.08;97039.47;7375406;19;19922;-72
2023/03/07 03:04:34;;;;;;;;;;;;;;;2.74;66.68;97037.28;7367021;19;19986;-71
2023/03/07 03:07:00;;;;;;;;;;;;;;;2.73;66.31;97035.59;7376591;19;20241;-71
2023/03/07 03:09:28;;;;;;;;;;;;;;;2.68;66.45;97037.81;7371862;19;20348;-71
2023/03/07 03:11:54;;;;;;;;;;;;;;;2.64;66.06;97029.44;7374620;19;19919;-71
2023/03/07 03:14:24;;;;;;;;;;;;;;;2.68;65.88;97035.19;7368575;19;19918;-71
2023/03/07 03:16:51;;;;;;;;;;;;;;;2.65;66.38;97035.47;7376886;19;19923;-71
2023/03/07 03:19:17;;;;;;;;;;;;;;;2.61;65.80;97039.34;7370081;19;19929;-71
2023/03/07 03:21:44;;;;;;;;;;;;;;;2.68;66.20;97039.59;7374729;19;19919;-71
2023/03/07 03:24:11;;;;;;;;;;;;;;;2.66;66.56;97031.06;7383142;19;19918;-71
2023/03/07 03:26:38;;;;;;;;;;;;;;;2.68;66.12;97039.59;7379792;19;19919;-71
2023/03/07 03:29:04;;;;;;;;;;;;;;;2.70;65.84;97030.66;7382330;19;19918;-71
2023/03/07 03:31:31;;;;;;;;;;;;;;;2.71;66.47;97031.47;7378341;19;20473;-72
2023/03/07 03:34:00;;;;;;;;;;;;;;;2.72;65.74;97027.94;7381513;19;20357;-72
2023/03/07 03:36:27;;;;;;;;;;;;;;;2.78;66.28;97033.41;7377450;19;19944;-72
2023/03/07 03:38:59;;;;;;;;;;;;;;;2.75;65.76;97036.28;7381407;19;19918;-72
2023/03/07 03:41:27;;;;;;;;;;;;;;;2.81;65.96;97034.91;7379999;19;19978;-72
2023/03/07 03:43:56;;;;;;;;;;;;;;;2.84;66.57;97034.63;7380859;19;20368;-72
2023/03/07 03:46:23;;;;;;;;;;;;;;;2.87;66.83;97023.91;7372717;19;19911;-72
2023/03/07 03:48:52;;;;;;;;;;;;;;;2.90;66.74;97030.63;7382970;19;19979;-72
2023/03/07 03:51:22;;;;;;;;;;;;;;;2.92;67.04;97029.50;7378772;19;19918;-72
2023/03/07 03:53:50;;;;;;;;;;;;;;;2.88;66.77;97024.75;7380382;19;19923;-71
2023/03/07 03:56:18;;;;;;;;;;;;;;;2.84;66.50;97018.94;7383323;19;19923;-72
2023/03/07 03:58:46;;;;;;;;;;;;;;;2.83;66.99;97023.34;7380139;19;19911;-72
2023/03/07 04:01:12;;;;;;;;;;;;;;;2.89;66.90;97015.94;7376165;19;20554;-72
2023/03/07 04:03:40;;;;;;;;;;;;;;;2.84;66.58;97013.72;7376086;19;20356;-72
2023/03/07 04:06:14;;;;;;;;;;;;;;;2.85;66.60;97016.22;7381992;19;19922;-71
2023/03/07 04:08:41;;;;;;;;;;;;;;;2.82;66.14;97019.09;7378952;19;20403;-72
2023/03/07 04:11:07;;;;;;;;;;;;;;;2.76;66.69;97013.59;7384848;19;19915;-72
2023/03/07 04:13:34;;;;;;;;;;;;;;;2.70;66.54;97015.00;7378811;19;19919;-71
2023/03/07 04:16:01;;;;;;;;;;;;;;;2.60;66.88;97008.97;7381548;19;19915;-71
2023/03/07 04:18:28;;;;;;;;;;;;;;;2.52;67.09;97008.84;7375357;19;19921;-71
2023/03/07 04:20:55;;;;;;;;;;;;;;;2.43;67.16;97005.28;7383011;19;22328;-71
2023/03/07 04:23:22;;;;;;;;;;;;;;;2.38;67.65;97003.06;7373704;19;19930;-72
2023/03/07 04:25:49;;;;;;;;;;;;;;;2.53;67.82;97006.09;7377486;19;20644;-71
2023/03/07 04:28:16;;;;;;;;;;;;;;;2.48;67.35;96997.84;7382442;19;19919;-71
2023/03/07 04:30:43;;;;;;;;;;;;;;;2.55;67.63;97004.16;7379073;19;19922;-71
2023/03/07 04:33:10;;;;;;;;;;;;;;;2.58;67.08;96993.44;7382451;19;19926;-71
2023/03/07 04:35:36;;;;;;;;;;;;;;;2.62;67.17;97000.03;7372997;19;19923;-71
2023/03/07 04:38:03;;;;;;;;;;;;;;;2.68;67.32;97001.25;7380417;19;19918;-71
2023/03/07 04:40:30;;;;;;;;;;;;;;;2.72;67.17;97007.84;7376321;19;19919;-72
2023/03/07 04:42:57;;;;;;;;;;;;;;;2.81;66.91;97000.94;7384164;19;19915;-71
2023/03/07 04:45:23;;;;;;;;;;;;;;;2.86;67.19;97001.34;7373755;19;19919;-71
2023/03/07 04:47:50;;;;;;;;;;;;;;;2.88;67.00;96999.44;7381412;19;19931;-71
2023/03/07 04:50:17;;;;;;;;;;;;;;;2.86;67.28;96991.72;7379744;19;19965;-72
2023/03/07 04:52:44;;;;;;;;;;;;;;;2.79;66.63;96995.03;7372905;19;20287;-72
2023/03/07 04:55:12;;;;;;;;;;;;;;;2.79;66.75;96989.81;7376515;19;19966;-71
2023/03/07 04:57:38;;;;;;;;;;;;;;;2.80;66.31;96981.03;7377621;19;19927;-71
2023/03/07 05:00:08;;;;;;;;;;;;;;;2.82;66.20;96981.72;7380765;19;19926;-71
2023/03/07 05:02:36;;;;;;;;;;;;;;;2.86;66.31;96986.50;7376838;19;19925;-71
2023/03/07 05:05:03;;;;;;;;;;;;;;;2.83;66.08;96978.97;7378459;19;19914;-72
2023/03/07 05:07:30;;;;;;;;;;;;;;;2.84;66.27;96972.78;7376846;19;19915;-71
2023/03/07 05:09:57;;;;;;;;;;;;;;;2.94;66.28;96977.97;7381020;19;19935;-72
2023/03/07 05:12:24;;;;;;;;;;;;;;;2.88;66.48;96973.31;7377061;19;19926;-70
2023/03/07 05:14:51;;;;;;;;;;;;;;;2.92;66.23;96966.81;7379589;19;21466;-71
2023/03/07 05:17:18;;;;;;;;;;;;;;;2.90;66.47;96966.16;7381190;19;20300;-71
2023/03/07 05:19:44;;;;;;;;;;;;;;;2.90;66.17;96976.63;7378556;19;20367;-71
2023/03/07 05:22:11;;;;;;;;;;;;;;;2.94;66.20;96966.69;7379535;19;20076;-70
2023/03/07 05:24:38;;;;;;;;;;;;;;;2.95;65.73;96965.72;7370551;19;19986;-70
2023/03/07 05:27:05;;;;;;;;;;;;;;;2.98;65.80;96958.44;7372995;19;19923;-70
2023/03/07 05:29:32;;;;;;;;;;;;;;;2.99;65.65;96960.06;7366989;19;20281;-71
2023/03/07 05:31:58;;;;;;;;;;;;;;;2.98;65.78;96957.63;7380209;19;20284;-71
2023/03/07 05:34:25;;;;;;;;;;;;;;;2.94;65.99;96959.66;7372459;19;19970;-71
2023/03/07 05:36:52;;;;;;;;;;;;;;;3.01;65.70;96952.91;7377069;19;19922;-70
2023/03/07 05:39:18;;;;;;;;;;;;;;;2.94;65.75;96958.84;7367046;19;20344;-70
2023/03/07 05:41:45;;;;;;;;;;;;;;;2.86;65.93;96959.56;7363118;19;19944;-71
2023/03/07 05:44:12;;;;;;;;;;;;;;;2.83;65.89;96959.84;7373033;19;20260;-71
2023/03/07 05:46:39;;;;;;;;;;;;;;;2.82;66.08;96963.44;7373165;19;19942;-71
2023/03/07 05:49:05;;;;;;;;;;;;;;;2.83;65.62;96958.06;7377969;19;20356;-71
2023/03/07 05:51:32;;;;;;;;;;;;;;;2.90;65.83;96955.72;7366193;19;19926;-71
2023/03/07 05:53:58;;;;;;;;;;;;;;;2.84;65.87;96956.25;7371108;19;19915;-71
2023/03/07 05:56:26;;;;;;;;;;;;;;;2.82;65.61;96958.22;7360247;19;20335;-71
2023/03/07 05:58:53;;;;;;;;;;;;;;;2.82;65.40;96958.22;7368554;19;19925;-71
2023/03/07 06:01:20;;;;;;;;;;;;;;;2.79;65.64;96953.25;7372124;19;19923;-70
2023/03/07 06:03:47;;;;;;;;;;;;;;;2.81;65.62;96946.09;7371520;19;19923;-71
2023/03/07 06:06:13;;;;;;;;;;;;;;;2.79;65.87;96948.88;7371920;19;19986;-70
2023/03/07 06:08:41;;;;;;;;;;;;;;;2.81;65.13;96943.50;7371821;19;19930;-71
2023/03/07 06:11:08;;;;;;;;;;;;;;;2.81;65.08;96941.69;7371987;19;19919;-70
2023/03/07 06:13:36;;;;;;;;;;;;;;;2.89;65.32;96938.38;7366267;19;19922;-70
2023/03/07 06:16:04;;;;;;;;;;;;;;;2.81;65.01;96931.25;7370846;19;19930;-70
2023/03/07 06:18:30;;;;;;;;;;;;;;;2.90;65.00;96933.97;7376572;19;19940;-70
2023/03/07 06:21:02;;;;;;;;;;;;;;;2.94;64.67;96932.72;7370104;19;19919;-70
2023/03/07 06:23:33;;;;;;;;;;;;;;;2.92;64.91;96922.41;7364317;19;20337;-72
2023/03/07 06:26:00;;;;;;;;;;;;;;;2.89;64.95;96925.31;7371386;19;20250;-70
2023/03/07 06:28:28;;;;;;;;;;;;;;;2.84;64.90;96925.78;7370833;19;19929;-70
2023/03/07 06:30:58;;;;;;;;;;;;;;;2.86;64.31;96928.22;7371978;19;19933;-70
2023/03/07 06:33:25;;;;;;;;;;;;;;;2.89;64.93;96933.16;7365458;19;19939;-70
2023/03/07 06:35:51;;;;;;;;;;;;;;;2.92;64.66;96922.41;7371191;19;19938;-71
2023/03/07 06:38:18;;;;;;;;;;;;;;;2.95;64.07;96931.75;7376508;19;19946;-70
2023/03/07 06:40:44;;;;;;;;;;;;;;;2.96;64.05;96934.25;7372946;19;21142;-70
2023/03/07 06:43:11;;;;;;;;;;;;;;;3.00;64.64;96937.38;7374611;19;19961;-70
2023/03/07 06:45:38;;;;;;;;;;;;;;;2.99;63.90;96938.34;7362774;19;19922;-70
2023/03/07 06:48:05;;;;;;;;;;;;;;;3.03;63.38;96934.50;7373297;19;19918;-70
2023/03/07 06:50:32;;;;;;;;;;;;;;;3.11;63.64;96934.59;7369708;19;19926;-70
2023/03/07 06:53:02;;;;;;;;;;;;;;;3.12;63.59;96930.19;7369842;19;19914;-70
2023/03/07 06:55:29;;;;;;;;;;;;;;;3.32;62.92;96936.13;7366770;19;21453;-71
2023/03/07 06:57:55;;;;;;;;;;;;;;;3.31;62.96;96932.69;7367346;19;20288;-70
2023/03/07 07:00:22;;;;;;;;;;;;;;;3.31;63.23;96932.69;7368765;19;20631;-70
2023/03/07 07:02:49;;;;;;;;;;;;;;;3.36;62.99;96934.88;7369773;19;20329;-70
2023/03/07 07:05:15;;;;;;;;;;;;;;;3.27;62.97;96944.44;7371657;19;19927;-70
2023/03/07 07:07:43;;;;;;;;;;;;;;;3.36;63.26;96935.69;7369494;19;19915;-70
2023/03/07 07:10:11;;;;;;;;;;;;;;;3.33;62.38;96937.78;7372998;19;19922;-69
2023/03/07 07:12:37;;;;;;;;;;;;;;;3.34;62.35;96928.97;7367467;19;20004;-70
2023/03/07 07:15:04;;;;;;;;;;;;;;;3.42;62.52;96929.91;7372690;19;19927;-70
2023/03/07 07:17:31;;;;;;;;;;;;;;;3.40;62.54;96934.44;7365814;19;19927;-70
2023/03/07 07:19:58;;;;;;;;;;;;;;;3.48;62.43;96936.34;7367272;19;19918;-72
2023/03/07 07:22:25;;;;;;;;;;;;;;;3.49;62.03;96935.34;7372637;19;19938;-70
2023/03/07 07:24:51;;;;;;;;;;;;;;;3.59;62.39;96940.53;7368606;19;19922;-70
2023/03/07 07:27:18;;;;;;;;;;;;;;;3.69;62.20;96933.47;7363389;19;19949;-72
2023/03/07 07:29:45;;;;;;;;;;;;;;;3.64;61.61;96931.28;7363885;19;19986;-72
2023/03/07 07:32:12;;;;;;;;;;;;;;;3.74;61.42;96934.66;7364339;19;19926;-72
2023/03/07 07:34:39;;;;;;;;;;;;;;;3.92;61.67;96932.06;7358216;19;20239;-72
2023/03/07 07:37:07;;;;;;;;;;;;;;;4.00;61.53;96926.03;7361791;19;19922;-73
2023/03/07 07:39:33;;;;;;;;;;;;;;;4.07;60.86;96919.25;7361281;19;19918;-73
2023/03/07 07:42:01;;;;;;;;;;;;;;;4.16;61.10;96927.97;7370316;19;19922;-72
2023/03/07 07:44:32;;;;;;;;;;;;;;;4.16;60.73;96920.13;7365989;19;19922;-72
2023/03/07 07:47:03;;;;;;;;;;;;;;;4.29;60.33;96920.59;7365518;19;19919;-72
2023/03/07 07:49:30;;;;;;;;;;;;;;;4.34;60.36;96926.16;7361738;19;19939;-70
2023/03/07 07:51:57;;;;;;;;;;;;;;;4.35;59.74;96927.81;7362966;19;20619;-70
2023/03/07 07:54:23;;;;;;;;;;;;;;;4.45;59.97;96926.91;7365982;19;19922;-70
2023/03/07 07:56:50;;;;;;;;;;;;;;;4.29;60.20;96933.69;7362832;19;19982;-70
2023/03/07 07:59:18;;;;;;;;;;;;;;;4.30;59.68;96924.03;7371203;19;19922;-70
2023/03/07 08:01:45;;;;;;;;;;;;;;;4.43;59.79;96924.44;7360435;19;19927;-70
2023/03/07 08:04:11;;;;;;;;;;;;;;;4.45;59.12;96926.91;7370747;19;19911;-70
2023/03/07 08:06:38;;;;;;;;;;;;;;;4.68;59.74;96925.41;7366639;19;20950;-70
2023/03/07 08:09:05;;;;;;;;;;;;;;;4.69;59.21;96928.88;7374972;19;19922;-70
2023/03/07 08:11:32;;;;;;;;;;;;;;;4.74;59.32;96922.19;7374451;19;19918;-70
2023/03/07 08:13:58;;;;;;;;;;;;;;;4.74;59.13;96916.97;7377869;19;19919;-70
2023/03/07 08:16:25;;;;;;;;;;;;;;;4.80;58.74;96920.75;7374191;19;19934;-70
2023/03/07 08:18:52;;;;;;;;;;;;;;;4.98;58.67;96912.81;7374091;19;20340;-70
2023/03/07 08:21:20;;;;;;;;;;;;;;;4.98;58.36;96913.66;7373878;19;20302;-70
2023/03/07 08:23:46;;;;;;;;;;;;;;;5.16;57.84;96920.59;7372360;19;19915;-71
2023/03/07 08:26:13;;;;;;;;;;;;;;;5.32;57.47;96907.56;7377247;19;19923;-70
2023/03/07 08:28:40;;;;;;;;;;;;;;;5.26;57.27;96916.84;7376320;19;19922;-70
2023/03/07 08:31:07;;;;;;;;;;;;;;;5.29;56.99;96907.84;7373135;19;19923;-71
2023/03/07 08:33:34;;;;;;;;;;;;;;;5.42;56.13;96905.59;7370149;19;19923;-70
2023/03/07 08:36:01;;;;;;;;;;;;;;;5.42;55.95;96910.03;7377621;19;20276;-71
2023/03/07 08:38:27;;;;;;;;;;;;;;;5.60;55.82;96910.75;7380992;19;20382;-71
2023/03/07 08:40:57;;;;;;;;;;;;;;;5.71;55.58;96909.63;7371567;19;19919;-71
2023/03/07 08:43:24;;;;;;;;;;;;;;;5.48;54.86;96910.22;7377685;19;19932;-71
2023/03/07 08:45:51;;;;;;;;;;;;;;;5.75;56.13;96904.88;7372259;19;19947;-71
2023/03/07 08:48:19;;;;;;;;;;;;;;;5.67;54.87;96906.50;7382982;19;19978;-71
2023/03/07 08:50:46;;;;;;;;;;;;;;;5.73;54.88;96905.84;7373263;19;19947;-71
2023/03/07 08:53:13;;;;;;;;;;;;;;;5.88;54.94;96903.41;7375138;19;19922;-71
2023/03/07 08:55:40;;;;;;;;;;;;;;;5.90;54.43;96893.59;7368434;19;19926;-71
2023/03/07 08:58:06;;;;;;;;;;;;;;;6.10;54.82;96899.34;7377661;19;19927;-71
2023/03/07 09:00:33;;;;;;;;;;;;;;;6.18;54.81;96900.34;7366798;19;19922;-71
2023/03/07 09:03:00;;;;;;;;;;;;;;;6.17;54.56;96896.91;7373688;19;19923;-71
2023/03/07 09:05:27;;;;;;;;;;;;;;;6.42;54.22;96887.19;7372241;19;19915;-71
2023/03/07 09:07:54;;;;;;;;;;;;;;;6.74;53.29;96891.59;7368559;19;19919;-70
2023/03/07 09:10:21;;;;;;;;;;;;;;;6.63;52.67;96883.22;7372941;19;19924;-71
2023/03/07 09:12:49;;;;;;;;;;;;;;;6.32;52.64;96882.13;7364557;19;19952;-71
2023/03/07 09:15:16;;;;;;;;;;;;;;;6.03;52.51;96884.41;7372840;19;19919;-71
2023/03/07 09:17:43;;;;;;;;;;;;;;;6.08;53.30;96877.72;7369399;19;19919;-71
2023/03/07 09:20:10;;;;;;;;;;;;;;;6.14;53.30;96884.94;7372037;19;20364;-71
2023/03/07 09:22:37;;;;;;;;;;;;;;;6.11;52.81;96881.81;7366879;19;19918;-71
2023/03/07 09:25:04;;;;;;;;;;;;;;;5.97;53.69;96878.03;7375216;19;19944;-72
2023/03/07 09:27:30;;;;;;;;;;;;;;;6.20;52.66;96874.75;7375478;19;19922;-71
2023/03/07 09:29:57;;;;;;;;;;;;;;;6.27;52.94;96879.19;7376750;19;19918;-70
2023/03/07 09:32:23;;;;;;;;;;;;;;;6.47;50.83;96866.50;7376565;19;19923;-71
2023/03/07 09:34:51;;;;;;;;;;;;;;;6.63;50.69;96867.47;7366544;19;19923;-71
2023/03/07 09:37:17;;;;;;;;;;;;;;;6.81;51.11;96862.81;7377273;19;20322;-71
2023/03/07 09:39:44;;;;;;;;;;;;;;;6.95;47.70;96861.28;7372259;19;20356;-70
2023/03/07 09:42:10;;;;;;;;;;;;;;;6.96;47.76;96862.94;7376954;19;19923;-70
2023/03/07 09:45:15;;;;;;;;;;;;;;;6.65;48.32;96861.06;7368807;19;19923;-70
2023/03/07 09:48:02;;;;;;;;;;;;;;;6.45;48.59;96855.38;7358158;19;19931;-70
2023/03/07 09:50:34;;;;;;;;;;;;;;;6.53;48.59;96857.13;7367387;19;20351;-70
2023/03/07 09:53:02;;;;;;;;;;;;;;;6.71;47.49;96859.56;7373256;19;19933;-71
2023/03/07 09:55:29;;;;;;;;;;;;;;;6.51;48.60;96867.81;7370527;19;20421;-70
2023/03/07 09:58:06;;;;;;;;;;;;;;;6.20;48.07;96878.19;7371840;19;19939;-70
2023/03/07 10:00:37;;;;;;;;;;;;;;;6.17;49.85;96865.41;7362132;19;19911;-71
2023/03/07 10:03:13;;;;;;;;;;;;;;;6.11;49.79;96864.25;7373755;19;19953;-71
2023/03/07 10:05:43;;;;;;;;;;;;;;;5.97;48.71;96851.78;7363064;19;19918;-70
2023/03/07 10:08:11;;;;;;;;;;;;;;;5.92;48.99;96862.75;7368534;19;19933;-71
2023/03/07 10:10:39;;;;;;;;;;;;;;;5.62;49.57;96864.19;7369886;19;19983;-70
2023/03/07 10:13:10;;;;;;;;;;;;;;;5.62;50.26;96860.75;7364470;19;19939;-71
2023/03/07 10:15:52;;;;;;;;;;;;;;;5.55;49.61;96868.44;7356323;19;20241;-70
2023/03/07 10:18:24;;;;;;;;;;;;;;;5.59;49.23;96863.69;7371038;19;19984;-70
2023/03/07 10:20:51;;;;;;;;;;;;;;;5.45;49.66;96865.97;7358850;19;20655;-71
2023/03/07 10:23:23;;;;;;;;;;;;;;;5.43;48.73;96865.31;7369898;19;19921;-71
2023/03/07 10:25:55;;;;;;;;;;;;;;;5.40;49.54;96864.81;7362159;19;19915;-71
2023/03/07 10:28:23;;;;;;;;;;;;;;;5.24;49.53;96855.91;7370381;19;19955;-69
2023/03/07 10:30:50;;;;;;;;;;;;;;;5.11;49.86;96847.69;7368936;19;20305;-69
2023/03/07 10:33:17;;;;;;;;;;;;;;;5.27;50.91;96847.72;7368298;19;19919;-71
2023/03/07 10:35:46;;;;;;;;;;;;;;;5.26;50.38;96858.34;7364682;19;19942;-71
2023/03/07 10:38:18;;;;;;;;;;;;;;;5.15;50.54;96849.00;7368199;19;19947;-71
2023/03/07 10:40:47;;;;;;;;;;;;;;;5.25;51.15;96852.31;7359266;19;19919;-71
2023/03/07 10:43:18;;;;;;;;;;;;;;;5.18;50.85;96839.97;7366687;19;20272;-70
2023/03/07 10:45:45;;;;;;;;;;;;;;;5.15;51.47;96841.13;7356855;19;19948;-71
2023/03/07 10:48:14;;;;;;;;;;;;;;;5.18;51.82;96848.66;7374440;19;19994;-71
2023/03/07 10:50:44;;;;;;;;;;;;;;;5.06;51.72;96842.09;7366742;19;20315;-69
2023/03/07 10:53:31;;;;;;;;;;;;;;;4.83;51.44;96841.84;7372290;19;19922;-69
2023/03/07 10:56:11;;;;;;;;;;;;;;;4.67;51.64;96847.81;7364966;19;19935;-71
2023/03/07 10:58:38;;;;;;;;;;;;;;;4.69;51.46;96838.00;7359151;19;19930;-70
2023/03/07 11:01:05;;;;;;;;;;;;;;;4.79;52.10;96828.22;7366329;19;20343;-71
2023/03/07 11:03:37;;;;;;;;;;;;;;;4.75;51.37;96840.00;7370901;19;19925;-71
2023/03/07 11:06:33;;;;;;;;;;;;;;;4.88;52.45;96834.31;7372042;19;20336;-70
2023/03/07 11:09:26;;;;;;;;;;;;;;;4.81;51.59;96835.91;7367806;19;19918;-70
2023/03/07 11:12:05;;;;;;;;;;;;;;;4.86;50.91;96822.34;7367045;19;19925;-71
2023/03/07 11:14:50;;;;;;;;;;;;;;;4.82;50.84;96842.81;7368753;19;20347;-70
2023/03/07 11:17:35;;;;;;;;;;;;;;;5.00;51.40;96833.06;7370862;19;19919;-71
2023/03/07 11:20:02;;;;;;;;;;;;;;;4.84;50.04;96825.13;7367317;19;20232;-71
2023/03/07 11:22:32;;;;;;;;;;;;;;;4.92;51.00;96819.09;7370887;19;19919;-70
2023/03/07 11:25:08;;;;;;;;;;;;;;;5.00;51.05;96817.34;7365154;19;20309;-70
2023/03/07 11:27:37;;;;;;;;;;;;;;;5.16;51.00;96816.56;7371147;19;20386;-71
2023/03/07 11:30:24;;;;;;;;;;;;;;;5.05;50.67;96816.84;7375895;19;19947;-70
2023/03/07 11:32:51;;;;;;;;;;;;;;;5.02;50.63;96809.31;7365265;19;20400;-71
2023/03/07 11:35:19;;;;;;;;;;;;;;;5.11;50.57;96805.75;7361852;19;20379;-71
2023/03/07 11:37:49;;;;;;;;;;;;;;;5.15;50.51;96806.22;7362710;19;20343;-71
2023/03/07 11:40:16;;;;;;;;;;;;;;;5.31;50.68;96806.25;7363421;19;19968;-71
2023/03/07 11:42:45;;;;;;;;;;;;;;;5.04;49.81;96804.72;7361726;19;19931;-70
2023/03/07 11:45:14;;;;;;;;;;;;;;;5.05;50.25;96808.97;7372838;19;20643;-71
2023/03/07 11:47:45;;;;;;;;;;;;;;;5.02;50.14;96806.69;7376437;19;19925;-71
2023/03/07 11:50:22;;;;;;;;;;;;;;;4.93;50.25;96802.41;7379325;19;19918;-71
2023/03/07 11:53:01;;;;;;;;;;;;;;;4.97;50.02;96806.34;7373006;19;20347;-71
2023/03/07 11:55:32;;;;;;;;;;;;;;;4.89;50.14;96808.94;7376859;19;19918;-69
2023/03/07 11:58:04;;;;;;;;;;;;;;;4.84;49.90;96806.78;7373877;19;19934;-70
2023/03/07 12:00:33;;;;;;;;;;;;;;;4.79;50.44;96804.66;7372936;19;19939;-71
2023/03/07 12:03:14;;;;;;;;;;;;;;;4.95;50.34;96805.66;7373636;19;19911;-71
2023/03/07 12:06:00;;;;;;;;;;;;;;;4.91;49.78;96801.75;7369376;19;19915;-71
2023/03/07 12:08:30;;;;;;;;;;;;;;;4.91;50.02;96799.94;7377764;19;19979;-71
2023/03/07 12:11:03;;;;;;;;;;;;;;;5.13;49.82;96793.28;7373107;19;20344;-70
2023/03/07 12:13:39;;;;;;;;;;;;;;;5.23;49.33;96790.50;7377977;19;20895;-71
2023/03/07 12:16:10;;;;;;;;;;;;;;;5.23;48.81;96786.09;7371617;19;20314;-71
2023/03/07 12:18:42;;;;;;;;;;;;;;;5.59;48.75;96783.19;7375113;19;20411;-71
2023/03/07 12:21:18;;;;;;;;;;;;;;;5.78;47.76;96778.59;7369586;19;20245;-71
2023/03/07 12:23:50;;;;;;;;;;;;;;;5.94;47.27;96765.47;7366814;19;19923;-71
2023/03/07 12:26:22;;;;;;;;;;;;;;;6.01;47.74;96770.91;7372425;19;19927;-70
2023/03/07 12:28:53;;;;;;;;;;;;;;;6.13;46.09;96759.91;7370025;19;20300;-70
2023/03/07 12:31:25;;;;;;;;;;;;;;;6.52;45.84;96745.16;7374196;19;20320;-71
2023/03/07 12:34:12;;;;;;;;;;;;;;;6.49;45.40;96745.50;7364684;19;20291;-70
2023/03/07 12:36:45;;;;;;;;;;;;;;;6.75;45.60;96740.78;7374213;19;19923;-70
2023/03/07 12:39:14;;;;;;;;;;;;;;;6.74;45.58;96740.94;7376575;19;19915;-70
2023/03/07 12:42:00;;;;;;;;;;;;;;;6.93;45.76;96742.34;7372797;19;19943;-70
2023/03/07 12:44:34;;;;;;;;;;;;;;;6.79;45.27;96721.06;7372056;19;19922;-70
2023/03/07 12:47:19;;;;;;;;;;;;;;;6.78;45.00;96721.22;7366360;19;19922;-70
2023/03/07 12:49:48;;;;;;;;;;;;;;;6.96;44.99;96715.72;7365801;19;19943;-71
2023/03/07 12:52:21;;;;;;;;;;;;;;;6.85;44.75;96703.78;7367920;19;19922;-70
2023/03/07 12:54:52;;;;;;;;;;;;;;;7.09;44.83;96710.69;7362347;19;19943;-71
2023/03/07 12:57:19;;;;;;;;;;;;;;;7.26;45.40;96700.88;7368509;19;20282;-71
2023/03/07 12:59:49;;;;;;;;;;;;;;;7.47;44.45;96706.28;7374265;19;19943;-70
2023/03/07 13:02:19;;;;;;;;;;;;;;;7.33;43.51;96701.81;7371410;19;19911;-70
2023/03/07 13:04:45;;;;;;;;;;;;;;;7.35;43.92;96697.19;7366877;19;19926;-70
2023/03/07 13:07:14;;;;;;;;;;;;;;;7.17;44.51;96689.59;7372855;19;19919;-70